Time;durP1;ratioP1;P1;durP2;ratioP2;P2;SDS_P1;SDS_P2;PMS_P1;PMS_P2;Temp;Humidity;BMP_temperature;BMP_pressure;BME280_temperature;BME280_humidity;BME280_pressure;Samples;Min_cycle;Max_cycle;Signal;HPM_P1;HPM_P2
2022/12/06 00:01:37;;;;;;;1999.90;999.90;;;;;;;2.61;100.00;94368.97;5136528;27;20303;-63
2022/12/06 00:04:05;;;;;;;1999.90;999.90;;;;;;;2.64;100.00;94368.22;5136852;27;20226;-63
2022/12/06 00:06:35;;;;;;;1999.90;999.90;;;;;;;2.67;100.00;94362.84;5137489;27;20174;-62
2022/12/06 00:09:01;;;;;;;1999.90;999.90;;;;;;;2.66;100.00;94363.22;5136452;27;20171;-62
2022/12/06 00:11:30;;;;;;;1999.90;999.90;;;;;;;2.66;100.00;94372.06;5136317;27;20215;-62
2022/12/06 00:13:58;;;;;;;1999.90;999.90;;;;;;;2.67;100.00;94379.03;5136633;27;20171;-62
2022/12/06 00:16:23;;;;;;;1999.90;999.90;;;;;;;2.69;100.00;94381.31;5136424;27;20199;-61
2022/12/06 00:18:49;;;;;;;1999.90;999.90;;;;;;;2.70;100.00;94372.84;5136039;27;20174;-62
2022/12/06 00:21:20;;;;;;;1999.90;999.90;;;;;;;2.71;100.00;94373.63;5135763;27;20240;-62
2022/12/06 00:23:48;;;;;;;1999.90;999.90;;;;;;;2.71;100.00;94374.41;5136664;27;20186;-62
2022/12/06 00:26:14;;;;;;;1999.90;999.90;;;;;;;2.71;100.00;94373.63;5136012;27;20213;-63
2022/12/06 00:28:40;;;;;;;1999.90;999.90;;;;;;;2.69;100.00;94382.09;5136503;27;20174;-62
2022/12/06 00:31:08;;;;;;;1999.90;999.90;;;;;;;2.67;100.00;94380.94;5135983;27;20174;-62
2022/12/06 00:33:35;;;;;;;1999.90;999.90;;;;;;;2.63;100.00;94383.59;5135941;27;20176;-61
2022/12/06 00:36:06;;;;;;;1999.90;999.90;;;;;;;2.60;100.00;94378.97;5136750;27;20253;-61
2022/12/06 00:38:33;;;;;;;1999.90;999.90;;;;;;;2.59;100.00;94373.97;5135874;27;20171;-59
2022/12/06 00:41:07;;;;;;;1999.90;999.90;;;;;;;2.56;100.00;94372.03;5135331;27;20313;-59
2022/12/06 00:43:34;;;;;;;1999.90;999.90;;;;;;;2.53;100.00;94378.94;5136179;27;20171;-59
2022/12/06 00:46:00;;;;;;;1999.90;999.90;;;;;;;2.51;100.00;94375.84;5135960;27;20182;-59
2022/12/06 00:48:25;;;;;;;1999.90;999.90;;;;;;;2.47;100.00;94382.34;5136055;27;20179;-59
2022/12/06 00:50:51;;;;;;;1999.90;999.90;;;;;;;2.43;100.00;94378.88;5136190;27;20175;-59
2022/12/06 00:53:16;;;;;;;1999.90;999.90;;;;;;;2.38;100.00;94382.72;5135548;27;20175;-63
2022/12/06 00:55:43;;;;;;;1999.90;999.90;;;;;;;2.36;100.00;94390.38;5136087;27;20171;-60
2022/12/06 00:58:09;;;;;;;1999.90;999.90;;;;;;;2.35;100.00;94377.28;5136018;27;20167;-61
2022/12/06 01:00:35;;;;;;;1999.90;999.90;;;;;;;2.35;100.00;94375.38;5135195;27;20175;-61
2022/12/06 01:03:00;;;;;;;1999.90;999.90;;;;;;;2.34;100.00;94379.19;5135052;27;20225;-61
2022/12/06 01:05:26;;;;;;;1999.90;999.90;;;;;;;2.35;100.00;94372.69;5135417;27;20331;-63
2022/12/06 01:07:51;;;;;;;1999.90;999.90;;;;;;;2.35;100.00;94377.28;5136004;27;20220;-60
2022/12/06 01:10:17;;;;;;;1999.90;999.90;;;;;;;2.34;100.00;94357.66;5134987;27;20170;-61
2022/12/06 01:12:42;;;;;;;1999.90;999.90;;;;;;;2.32;100.00;94362.66;5136204;27;20183;-62
2022/12/06 01:15:08;;;;;;;1999.90;999.90;;;;;;;2.30;100.00;94359.56;5135640;27;20187;-63
2022/12/06 01:17:34;;;;;;;1999.90;999.90;;;;;;;2.28;100.00;94358.38;5135688;27;20181;-63
2022/12/06 01:19:59;;;;;;;1999.90;999.90;;;;;;;2.23;100.00;94348.72;5134706;27;20178;-63
2022/12/06 01:22:25;;;;;;;1999.90;999.90;;;;;;;2.16;100.00;94359.50;5135012;27;20198;-63
2022/12/06 01:24:51;;;;;;;1999.90;999.90;;;;;;;2.16;100.00;94359.50;5135025;27;20171;-62
2022/12/06 01:27:16;;;;;;;1999.90;999.90;;;;;;;2.17;100.00;94352.94;5135696;27;20178;-61
2022/12/06 01:29:41;;;;;;;1999.90;999.90;;;;;;;2.16;100.00;94346.03;5134649;27;20186;-62
2022/12/06 01:32:07;;;;;;;1999.90;999.90;;;;;;;2.15;100.00;94341.00;5134934;27;20236;-62
2022/12/06 01:34:32;;;;;;;1999.90;999.90;;;;;;;2.16;100.00;94343.34;5135421;27;20235;-62
2022/12/06 01:36:57;;;;;;;1999.90;999.90;;;;;;;2.12;100.00;94339.81;5135532;27;20178;-62
2022/12/06 01:39:23;;;;;;;1999.90;999.90;;;;;;;2.08;100.00;94347.09;5135131;27;20200;-62
2022/12/06 01:41:48;;;;;;;1999.90;999.90;;;;;;;2.03;100.00;94344.78;5134873;27;20252;-62
2022/12/06 01:44:36;;;;;;;1999.90;999.90;;;;;;;1.98;100.00;94347.81;5134827;27;20186;-62
2022/12/06 01:47:01;;;;;;;1999.90;999.90;;;;;;;1.94;100.00;94333.59;5135410;27;20175;-64
2022/12/06 01:49:33;;;;;;;1999.90;999.90;;;;;;;1.87;100.00;94336.22;5134720;27;20266;-59
2022/12/06 01:52:06;;;;;;;1999.90;999.90;;;;;;;1.84;100.00;94342.34;5135002;27;20205;-61
2022/12/06 01:54:33;;;;;;;1999.90;999.90;;;;;;;1.80;100.00;94340.75;5134596;27;20175;-62
2022/12/06 01:57:02;;;;;;;1999.90;999.90;;;;;;;1.75;100.00;94336.50;5134383;27;20203;-61
2022/12/06 01:59:28;;;;;;;1999.90;999.90;;;;;;;1.73;100.00;94333.41;5135058;28;20175;-61
2022/12/06 02:01:54;;;;;;;1999.90;999.90;;;;;;;1.70;100.00;94336.84;5135216;28;20211;-62
2022/12/06 02:04:21;;;;;;;1999.90;999.90;;;;;;;1.70;100.00;94326.09;5134400;27;20224;-62
2022/12/06 02:06:48;;;;;;;1999.90;999.90;;;;;;;1.69;100.00;94329.94;5134763;27;20200;-60
2022/12/06 02:09:15;;;;;;;1999.90;999.90;;;;;;;1.67;100.00;94318.75;5134424;28;20179;-62
2022/12/06 02:11:42;;;;;;;1999.90;999.90;;;;;;;1.65;100.00;94329.13;5134680;28;20183;-62
2022/12/06 02:14:12;;;;;;;1999.90;999.90;;;;;;;1.59;100.00;94322.53;5135923;27;20194;-63
2022/12/06 02:16:56;;;;;;;1999.90;999.90;;;;;;;1.54;100.00;94317.53;5138775;27;20192;-63
2022/12/06 02:19:49;;;;;;;1999.90;999.90;;;;;;;1.53;100.00;94321.34;5138496;27;20212;-62
2022/12/06 02:22:58;;;;;;;1999.90;999.90;;;;;;;1.53;100.00;94324.03;5138768;27;20203;-62
2022/12/06 02:25:33;;;;;;;1999.90;999.90;;;;;;;1.51;100.00;94320.94;5139009;27;20605;-60
2022/12/06 02:28:36;;;;;;;1999.90;999.90;;;;;;;1.45;100.00;94311.66;5138874;27;20168;-64
2022/12/06 02:31:12;;;;;;;1999.90;999.90;;;;;;;1.43;100.00;94316.66;5138541;27;20189;-64
2022/12/06 02:33:45;;;;;;;1999.90;999.90;;;;;;;1.41;100.00;94313.56;5138403;27;20605;-64
2022/12/06 02:36:17;;;;;;;1999.90;999.90;;;;;;;1.43;100.00;94310.50;5138641;27;20165;-64
2022/12/06 02:38:48;;;;;;;1999.90;999.90;;;;;;;1.41;100.00;94305.50;5138257;27;20172;-63
2022/12/06 02:41:22;;;;;;;1999.90;999.90;;;;;;;1.42;100.00;94293.59;5138082;27;20225;-64
2022/12/06 02:43:55;;;;;;;1999.90;999.90;;;;;;;1.40;100.00;94292.41;5137940;27;20198;-59
2022/12/06 02:46:22;;;;;;;1999.90;999.90;;;;;;;1.38;100.00;94297.41;5138680;27;20259;-61
2022/12/06 02:48:51;;;;;;;1999.90;999.90;;;;;;;1.35;100.00;94292.78;5137815;27;20171;-61
2022/12/06 02:51:18;;;;;;;1999.90;999.90;;;;;;;1.35;100.00;94288.16;5138209;27;20181;-63
2022/12/06 02:53:47;;;;;;;1999.90;999.90;;;;;;;1.34;100.00;94286.59;5137657;27;20177;-61
2022/12/06 02:56:15;;;;;;;1999.90;999.90;;;;;;;1.29;100.00;94284.28;5137852;27;20169;-63
2022/12/06 02:58:40;;;;;;;1999.90;999.90;;;;;;;1.21;100.00;94293.44;5138574;27;20188;-61
2022/12/06 03:01:17;;;;;;;1999.90;999.90;;;;;;;1.24;100.00;94276.53;5137750;27;20244;-62
2022/12/06 03:04:07;;;;;;;1999.90;999.90;;;;;;;1.25;100.00;94278.09;5138342;27;20214;-63
2022/12/06 03:07:02;;;;;;;1999.90;999.90;;;;;;;1.28;100.00;94276.56;5137837;27;20174;-64
2022/12/06 03:09:41;;;;;;;1999.90;999.90;;;;;;;1.22;100.00;94268.09;5138530;27;20166;-64
2022/12/06 03:12:29;;;;;;;1999.90;999.90;;;;;;;1.15;100.00;94270.72;5137420;27;20624;-65
2022/12/06 03:15:28;;;;;;;1999.90;999.90;;;;;;;1.15;100.00;94276.09;5138373;27;20310;-64
2022/12/06 03:18:01;;;;;;;1999.90;999.90;;;;;;;1.13;100.00;94285.66;5113926;27;20186;-64
2022/12/06 03:20:43;;;;;;;1999.90;999.90;;;;;;;1.10;100.00;94281.81;5137215;27;20166;-62
2022/12/06 03:23:19;;;;;;;1999.90;999.90;;;;;;;1.09;100.00;94264.13;5137878;27;20183;-63
2022/12/06 03:25:47;;;;;;;1999.90;999.90;;;;;;;1.07;100.00;94271.78;5136377;27;20174;-62
2022/12/06 03:28:16;;;;;;;1999.90;999.90;;;;;;;1.06;100.00;94272.16;5137015;27;20252;-63
2022/12/06 03:30:46;;;;;;;1999.90;999.90;;;;;;;1.06;100.00;94270.22;5136931;27;20211;-61
2022/12/06 03:33:14;;;;;;;1999.90;999.90;;;;;;;1.08;100.00;94259.88;5137401;27;20231;-61
2022/12/06 03:35:41;;;;;;;1999.90;999.90;;;;;;;1.07;100.00;94265.63;5137670;27;20212;-61
2022/12/06 03:38:11;;;;;;;1999.90;999.90;;;;;;;1.08;100.00;94262.56;5137407;27;20624;-63
2022/12/06 03:40:41;;;;;;;1999.90;999.90;;;;;;;1.07;100.00;94263.72;5136806;27;20364;-62
2022/12/06 03:43:07;;;;;;;1999.90;999.90;;;;;;;1.10;100.00;94260.31;5137614;27;20277;-63
2022/12/06 03:45:58;;;;;;;1999.90;999.90;;;;;;;1.06;100.00;94270.22;5137010;27;20269;-62
2022/12/06 03:48:40;;;;;;;1999.90;999.90;;;;;;;1.02;100.00;94272.09;5136501;27;20244;-63
2022/12/06 03:51:21;;;;;;;1999.90;999.90;;;;;;;1.04;100.00;94261.78;5137246;27;20226;-64
2022/12/06 03:53:49;;;;;;;1999.90;999.90;;;;;;;1.06;100.00;94262.16;5137354;27;20174;-62
2022/12/06 03:56:15;;;;;;;1999.90;999.90;;;;;;;1.01;100.00;94267.88;5136645;27;20189;-61
2022/12/06 03:58:40;;;;;;;1999.90;999.90;;;;;;;1.02;100.00;94266.72;5137185;27;20311;-60
2022/12/06 04:01:08;;;;;;;1999.90;999.90;;;;;;;1.02;100.00;94263.28;5137128;27;20171;-64
2022/12/06 04:03:34;;;;;;;1999.90;999.90;;;;;;;1.04;100.00;94271.75;5136609;27;20205;-62
2022/12/06 04:06:04;;;;;;;1999.90;999.90;;;;;;;1.08;100.00;94259.09;5136604;27;20268;-63
2022/12/06 04:08:30;;;;;;;1999.90;999.90;;;;;;;1.11;100.00;94255.69;5136547;27;20182;-63
2022/12/06 04:10:56;;;;;;;1999.90;999.90;;;;;;;1.09;100.00;94253.38;5136579;27;20177;-63
2022/12/06 04:13:21;;;;;;;1999.90;999.90;;;;;;;1.07;100.00;94249.50;5136234;27;20177;-63
2022/12/06 04:15:47;;;;;;;1999.90;999.90;;;;;;;1.07;100.00;94247.59;5136962;27;20201;-62
2022/12/06 04:18:13;;;;;;;1999.90;999.90;;;;;;;1.10;100.00;94249.56;5136242;27;20175;-62
2022/12/06 04:23:41;;;;;;;1999.90;999.90;;;;;;;1.02;100.00;94252.53;5137543;27;20169;-62
2022/12/06 04:26:10;;;;;;;1999.90;999.90;;;;;;;0.96;100.00;94238.69;5136228;27;20233;-63
2022/12/06 04:39:33;;;;;;;1999.90;999.90;;;;;;;0.82;100.00;94251.97;5137263;27;20167;-62
2022/12/06 04:44:43;;;;;;;1999.90;999.90;;;;;;;0.83;100.00;94248.13;5137196;27;20222;-63
2022/12/06 04:47:09;;;;;;;1999.90;999.90;;;;;;;0.82;100.00;94235.84;5135452;27;20171;-63
2022/12/06 04:49:36;;;;;;;1999.90;999.90;;;;;;;0.85;100.00;94237.81;5136206;27;20176;-62
2022/12/06 04:52:02;;;;;;;1999.90;999.90;;;;;;;0.85;100.00;94232.44;5136144;27;20179;-60
2022/12/06 04:54:28;;;;;;;1999.90;999.90;;;;;;;0.81;100.00;94231.63;5135578;27;20172;-59
2022/12/06 04:56:55;;;;;;;1999.90;999.90;;;;;;;0.82;100.00;94232.38;5135402;27;20177;-59
2022/12/06 04:59:20;;;;;;;1999.90;999.90;;;;;;;0.81;100.00;94231.63;5135476;27;20167;-59
2022/12/06 05:01:45;;;;;;;1999.90;999.90;;;;;;;0.82;100.00;94224.31;5136000;27;20207;-59
2022/12/06 05:04:11;;;;;;;1999.90;999.90;;;;;;;0.84;100.00;94220.13;5135545;27;20200;-60
2022/12/06 05:06:36;;;;;;;1999.90;999.90;;;;;;;0.86;100.00;94225.13;5135644;27;20199;-59
2022/12/06 05:09:02;;;;;;;1999.90;999.90;;;;;;;0.87;100.00;94224.00;5135723;27;20181;-60
2022/12/06 05:11:27;;;;;;;1999.90;999.90;;;;;;;0.82;100.00;94225.09;5135083;27;20201;-65
2022/12/06 05:13:53;;;;;;;1999.90;999.90;;;;;;;0.79;100.00;94227.75;5134881;27;20206;-62
2022/12/06 05:16:18;;;;;;;1999.90;999.90;;;;;;;0.71;100.00;94237.66;5134925;27;20176;-63
2022/12/06 05:18:43;;;;;;;1999.90;999.90;;;;;;;0.68;100.00;94233.03;5135113;27;20176;-62
2022/12/06 05:21:17;;;;;;;1999.90;999.90;;;;;;;0.67;100.00;94236.88;5134995;27;20177;-63
2022/12/06 05:23:43;;;;;;;1999.90;999.90;;;;;;;0.68;100.00;94232.25;5135541;27;20212;-63
2022/12/06 05:26:17;;;;;;;1999.90;999.90;;;;;;;0.67;100.00;94231.50;5135033;27;20183;-63
2022/12/06 05:28:43;;;;;;;1999.90;999.90;;;;;;;0.68;100.00;94227.66;5135203;27;20257;-64
2022/12/06 05:31:09;;;;;;;1999.90;999.90;;;;;;;0.71;100.00;94234.97;5135038;27;20174;-64
2022/12/06 05:33:37;;;;;;;1999.90;999.90;;;;;;;0.72;100.00;94233.84;5134832;27;20183;-64
2022/12/06 05:36:17;;;;;;;1999.90;999.90;;;;;;;0.72;100.00;94244.56;5134787;27;20208;-65
2022/12/06 05:38:44;;;;;;;1999.90;999.90;;;;;;;0.73;100.00;94238.06;5135205;27;20173;-64
2022/12/06 05:41:09;;;;;;;1999.90;999.90;;;;;;;0.76;100.00;94231.94;5134999;27;20218;-65
2022/12/06 05:43:34;;;;;;;1999.90;999.90;;;;;;;0.76;100.00;94234.63;5134701;27;20209;-64
2022/12/06 05:46:00;;;;;;;1999.90;999.90;;;;;;;0.72;100.00;94233.84;5134328;27;20165;-60
2022/12/06 05:48:26;;;;;;;1999.90;999.90;;;;;;;0.70;100.00;94236.13;5134760;27;20169;-63
2022/12/06 05:50:52;;;;;;;1999.90;999.90;;;;;;;0.65;100.00;94233.00;5134236;27;20173;-63
2022/12/06 05:53:18;;;;;;;1999.90;999.90;;;;;;;0.61;100.00;94238.31;5134608;27;20176;-63
2022/12/06 05:55:43;;;;;;;1999.90;999.90;;;;;;;0.61;100.00;94232.97;5134844;27;20180;-63
2022/12/06 05:58:09;;;;;;;1999.90;999.90;;;;;;;0.62;100.00;94234.50;5134174;27;20219;-63
2022/12/06 06:00:35;;;;;;;1999.90;999.90;;;;;;;0.62;100.00;94231.06;5134119;27;20181;-61
2022/12/06 06:03:01;;;;;;;1999.90;999.90;;;;;;;0.62;100.00;94231.81;5135021;28;20272;-62
2022/12/06 06:05:26;;;;;;;1999.90;999.90;;;;;;;0.62;100.00;94231.81;5134978;28;20615;-63
2022/12/06 06:07:51;;;;;;;1999.90;999.90;;;;;;;0.62;100.00;94231.81;5134676;27;20219;-61
2022/12/06 06:10:17;;;;;;;1999.90;999.90;;;;;;;0.63;100.00;94228.00;5135472;27;20199;-61
2022/12/06 06:12:43;;;;;;;1999.90;999.90;;;;;;;0.67;100.00;94218.06;5134076;27;20183;-62
2022/12/06 06:15:10;;;;;;;1999.90;999.90;;;;;;;0.68;100.00;94222.28;5134726;27;20169;-61
2022/12/06 06:17:35;;;;;;;1999.90;999.90;;;;;;;0.68;100.00;94222.28;5134894;27;20285;-62
2022/12/06 06:20:04;;;;;;;1999.90;999.90;;;;;;;0.72;100.00;94223.09;5134851;28;20179;-61
2022/12/06 06:22:31;;;;;;;1999.90;999.90;;;;;;;0.72;100.00;94212.34;5134068;27;20207;-62
2022/12/06 06:24:57;;;;;;;1999.90;999.90;;;;;;;0.76;100.00;94213.16;5134270;27;20184;-61
2022/12/06 06:27:22;;;;;;;1999.90;999.90;;;;;;;0.79;100.00;94217.00;5134453;28;20212;-60
2022/12/06 06:29:47;;;;;;;1999.90;999.90;;;;;;;0.77;100.00;94209.34;5134103;28;20202;-60
2022/12/06 06:32:13;;;;;;;1999.90;999.90;;;;;;;0.81;100.00;94218.19;5134060;27;20272;-60
2022/12/06 06:34:38;;;;;;;1999.90;999.90;;;;;;;0.85;100.00;94210.94;5134628;27;20280;-60
2022/12/06 06:37:03;;;;;;;1999.90;999.90;;;;;;;0.82;100.00;94217.06;5134026;27;20172;-60
2022/12/06 06:39:29;;;;;;;1999.90;999.90;;;;;;;0.82;100.00;94217.06;5134110;27;20268;-60
2022/12/06 06:41:54;;;;;;;1999.90;999.90;;;;;;;0.85;100.00;94215.53;5134051;27;20245;-61
2022/12/06 06:44:20;;;;;;;1999.90;999.90;;;;;;;0.86;100.00;94217.06;5134394;27;20174;-62
2022/12/06 06:46:45;;;;;;;1999.90;999.90;;;;;;;0.86;100.00;94220.53;5134252;28;20179;-61
2022/12/06 06:49:11;;;;;;;1999.90;999.90;;;;;;;0.91;100.00;94208.69;5133647;28;20173;-61
2022/12/06 06:51:36;;;;;;;1999.90;999.90;;;;;;;0.95;100.00;94220.25;5134054;27;20173;-60
2022/12/06 06:54:02;;;;;;;1999.90;999.90;;;;;;;0.99;100.00;94213.75;5134551;27;20261;-60
2022/12/06 06:56:27;;;;;;;1999.90;999.90;;;;;;;1.06;100.00;94205.72;5133687;27;20175;-60
2022/12/06 06:58:53;;;;;;;1999.90;999.90;;;;;;;1.12;100.00;94204.25;5133941;27;20167;-60
2022/12/06 07:01:23;;;;;;;1999.90;999.90;;;;;;;1.19;100.00;94209.69;5134888;27;20186;-62
2022/12/06 07:03:50;;;;;;;1999.90;999.90;;;;;;;1.22;100.00;94203.56;5137933;27;20193;-62
2022/12/06 07:06:16;;;;;;;1999.90;999.90;;;;;;;1.27;100.00;94197.84;5137712;27;20175;-60
2022/12/06 07:08:42;;;;;;;1999.90;999.90;;;;;;;1.34;100.00;94192.50;5137496;27;20172;-61
2022/12/06 07:11:09;;;;;;;1999.90;999.90;;;;;;;1.39;100.00;94189.50;5137323;27;20201;-61
2022/12/06 07:13:36;;;;;;;1999.90;999.90;;;;;;;1.45;100.00;94185.28;5137090;27;20175;-61
2022/12/06 07:16:04;;;;;;;1999.90;999.90;;;;;;;1.50;100.00;94184.94;5137680;27;20170;-62
2022/12/06 07:18:29;;;;;;;1999.90;999.90;;;;;;;1.56;100.00;94183.41;5137811;27;20274;-63
2022/12/06 07:21:00;;;;;;;1999.90;999.90;;;;;;;1.63;100.00;94183.47;5137441;27;20211;-61
2022/12/06 07:23:25;;;;;;;1999.90;999.90;;;;;;;1.69;100.00;94179.28;5137524;27;20203;-65
2022/12/06 07:26:15;;;;;;;1999.90;999.90;;;;;;;1.74;100.00;94184.28;5137190;27;20175;-66
2022/12/06 07:28:42;;;;;;;1999.90;999.90;;;;;;;1.82;100.00;94182.41;5137217;27;20228;-65
2022/12/06 07:31:16;;;;;;;1999.90;999.90;;;;;;;1.87;100.00;94169.38;5137776;27;20175;-65
2022/12/06 07:33:42;;;;;;;1999.90;999.90;;;;;;;1.91;100.00;94175.53;5137339;27;20171;-68
2022/12/06 07:36:10;;;;;;;1999.90;999.90;;;;;;;1.96;100.00;94177.09;5136615;27;20186;-65
2022/12/06 07:38:35;;;;;;;1999.90;999.90;;;;;;;1.97;100.00;94179.41;5136784;27;20273;-62
2022/12/06 07:44:59;;;;;;;1999.90;999.90;;;;;;;1.99;100.00;94177.09;5137172;27;20332;-66
2022/12/06 07:46:32;;;;;;;1999.90;999.90;;;;;;;2.60;100.00;94174.22;5138245;27;20177;-65
2022/12/06 07:48:58;;;;;;;1999.90;999.90;;;;;;;2.99;100.00;94158.09;5136873;27;20211;-65
2022/12/06 07:51:23;;;;;;;1999.90;999.90;;;;;;;3.68;100.00;94140.25;5136296;27;20176;-66
2022/12/06 07:53:48;;;;;;;1999.90;999.90;;;;;;;4.32;100.00;94146.16;5136489;27;20175;-63
2022/12/06 07:56:14;;;;;;;1999.90;999.90;;;;;;;4.94;100.00;94149.66;5135987;27;20176;-58
2022/12/06 07:58:40;;;;;;;1999.90;999.90;;;;;;;5.48;100.00;94170.47;5137083;27;20176;-61
2022/12/06 08:01:05;;;;;;;1999.90;999.90;;;;;;;6.02;100.00;94212.91;5136991;27;20178;-61
2022/12/06 08:03:31;;;;;;;1999.90;999.90;;;;;;;6.57;100.00;94264.97;5136887;27;20213;-61
2022/12/06 08:05:56;;;;;;;1999.90;999.90;;;;;;;6.65;100.00;94374.91;5136715;27;20196;-61
2022/12/06 08:08:21;;;;;;;1999.90;999.90;;;;;;;7.02;100.00;94535.03;5136858;27;20182;-62
2022/12/06 08:10:47;;;;;;;1999.90;999.90;;;;;;;7.26;100.00;94674.47;5136461;27;20171;-61
2022/12/06 08:13:12;;;;;;;1999.90;999.90;;;;;;;7.28;100.00;94843.94;5135508;27;20553;-61
2022/12/06 08:15:38;;;;;;;1999.90;999.90;;;;;;;7.53;100.00;94971.50;5136189;27;20171;-65
2022/12/06 08:18:04;;;;;;;1999.90;999.90;;;;;;;7.86;100.00;95071.56;5135839;27;20183;-62
2022/12/06 08:20:29;;;;;;;1999.90;999.90;;;;;;;8.11;100.00;95142.94;5135950;27;20178;-61
2022/12/06 08:22:54;;;;;;;1999.90;999.90;;;;;;;8.33;100.00;95193.41;5136636;27;20230;-61
2022/12/06 08:25:20;;;;;;;1999.90;999.90;;;;;;;7.92;100.00;95238.53;5136348;27;20187;-61
2022/12/06 08:27:45;;;;;;;1999.90;999.90;;;;;;;8.37;100.00;95265.69;5136010;27;20179;-61
2022/12/06 08:30:11;;;;;;;1999.90;999.90;;;;;;;9.09;100.00;95284.91;5136076;27;20167;-62
2022/12/06 08:32:36;;;;;;;1999.90;999.90;;;;;;;9.31;100.00;95316.31;5135900;27;20203;-61
2022/12/06 08:35:01;;;;;;;1999.90;999.90;;;;;;;9.45;100.00;95323.66;5135905;27;20206;-60
2022/12/06 08:37:27;;;;;;;1999.90;999.90;;;;;;;9.55;100.00;95329.03;5136091;27;20269;-58
2022/12/06 08:39:52;;;;;;;1999.90;999.90;;;;;;;9.58;100.00;95332.94;5135452;27;20177;-58
2022/12/06 08:42:17;;;;;;;1999.90;999.90;;;;;;;9.63;100.00;95330.56;5135397;27;20225;-58
2022/12/06 08:44:43;;;;;;;1999.90;999.90;;;;;;;9.23;100.00;95344.00;5135781;27;20559;-59
2022/12/06 08:47:09;;;;;;;1999.90;999.90;;;;;;;8.03;100.00;95348.06;5135439;27;20239;-59
2022/12/06 08:49:34;;;;;;;1999.90;999.90;;;;;;;7.40;100.00;95359.59;5135618;27;20179;-58
2022/12/06 08:52:00;;;;;;;1999.90;999.90;;;;;;;6.81;100.00;95360.88;5135558;27;20173;-59
2022/12/06 08:54:26;;;;;;;1999.90;999.90;;;;;;;6.54;100.00;95346.00;5135987;27;20182;-62
2022/12/06 08:56:52;;;;;;;1999.90;999.90;;;;;;;6.04;100.00;95351.41;5136270;27;20181;-61
2022/12/06 08:59:17;;;;;;;1999.90;999.90;;;;;;;5.97;100.00;95338.59;5135350;27;20168;-61
2022/12/06 09:01:44;;;;;;;1999.90;999.90;;;;;;;5.84;100.00;95339.25;5135451;27;20206;-61
2022/12/06 09:04:10;;;;;;;1999.90;999.90;;;;;;;5.63;100.00;95333.63;5135370;27;20222;-62
2022/12/06 09:06:38;;;;;;;1999.90;999.90;;;;;;;5.49;100.00;95333.47;5134959;27;20202;-62
2022/12/06 09:09:04;;;;;;;1999.90;999.90;;;;;;;5.11;100.00;95325.72;5135656;27;20175;-61
2022/12/06 09:11:29;;;;;;;1999.90;999.90;;;;;;;4.95;100.00;95319.75;5135660;27;20258;-59
2022/12/06 09:13:54;;;;;;;1999.90;999.90;;;;;;;4.80;100.00;95299.84;5134927;27;20343;-62
2022/12/06 09:16:22;;;;;;;1999.90;999.90;;;;;;;4.78;100.00;95295.97;5135102;27;20177;-61
2022/12/06 09:18:50;;;;;;;1999.90;999.90;;;;;;;4.70;100.00;95286.22;5135558;27;20181;-61
2022/12/06 09:21:18;;;;;;;1999.90;999.90;;;;;;;4.62;100.00;95273.75;5134592;27;20192;-61
2022/12/06 09:23:44;;;;;;;1999.90;999.90;;;;;;;4.55;100.00;95271.72;5134449;27;20174;-63
2022/12/06 09:26:10;;;;;;;1999.90;999.90;;;;;;;4.58;100.00;95259.41;5134850;27;20234;-61
2022/12/06 09:28:37;;;;;;;1999.90;999.90;;;;;;;4.59;100.00;95250.16;5135588;27;20209;-57
2022/12/06 09:31:04;;;;;;;1999.90;999.90;;;;;;;4.57;100.00;95233.50;5134621;27;20165;-64
2022/12/06 09:33:30;;;;;;;1999.90;999.90;;;;;;;4.54;100.00;95224.22;5135379;27;20173;-64
2022/12/06 09:35:57;;;;;;;1999.90;999.90;;;;;;;4.55;100.00;95216.91;5134739;27;20187;-63
2022/12/06 09:38:26;;;;;;;1999.90;999.90;;;;;;;4.41;100.00;95214.03;5134654;27;20177;-63
2022/12/06 09:41:20;;;;;;;1999.90;999.90;;;;;;;4.36;100.00;95209.72;5135798;27;20222;-63
2022/12/06 09:44:08;;;;;;;1999.90;999.90;;;;;;;4.39;100.00;95198.16;5134466;27;20195;-63
2022/12/06 09:47:03;;;;;;;1999.90;999.90;;;;;;;4.29;100.00;95187.25;5134679;27;20213;-61
2022/12/06 09:49:35;;;;;;;1999.90;999.90;;;;;;;4.27;100.00;95176.81;5134876;27;20173;-62
2022/12/06 09:52:45;;;;;;;1999.90;999.90;;;;;;;4.24;100.00;95176.75;5134947;27;20186;-61
2022/12/06 09:55:11;;;;;;;1999.90;999.90;;;;;;;4.34;100.00;95151.78;5134472;27;20179;-62
2022/12/06 09:57:49;;;;;;;1999.90;999.90;;;;;;;4.43;100.00;95141.44;5134574;28;20224;-62
2022/12/06 10:00:21;;;;;;;1999.90;999.90;;;;;;;4.41;100.00;95132.94;5134858;27;20172;-63
2022/12/06 10:03:25;;;;;;;1999.90;999.90;;;;;;;4.34;100.00;95133.66;5134555;27;20207;-63
2022/12/06 10:06:01;;;;;;;1999.90;999.90;;;;;;;4.41;100.00;95122.13;5134879;27;20173;-62
2022/12/06 10:08:38;;;;;;;1999.90;999.90;;;;;;;4.41;100.00;95114.78;5134088;28;20208;-63
2022/12/06 10:11:27;;;;;;;1999.90;999.90;;;;;;;4.46;100.00;95108.25;5134963;28;20614;-63
2022/12/06 10:14:11;;;;;;;1999.90;999.90;;;;;;;4.44;100.00;95100.53;5134411;27;20219;-62
2022/12/06 10:16:52;;;;;;;1999.90;999.90;;;;;;;4.47;100.00;95099.00;5134411;28;20270;-62
2022/12/06 10:19:52;;;;;;;1999.90;999.90;;;;;;;4.52;100.00;95095.97;5134924;27;20174;-63
2022/12/06 10:22:28;;;;;;;1999.90;999.90;;;;;;;4.54;100.00;95093.66;5133943;27;20197;-66
2022/12/06 10:25:06;;;;;;;1999.90;999.90;;;;;;;4.53;100.00;95089.41;5134215;28;20233;-61
2022/12/06 10:27:43;;;;;;;1999.90;999.90;;;;;;;4.47;100.00;95088.19;5134455;28;20201;-62
2022/12/06 10:30:11;;;;;;;1999.90;999.90;;;;;;;4.39;100.00;95086.56;5134617;27;20167;-62
2022/12/06 10:33:09;;;;;;;1999.90;999.90;;;;;;;4.46;100.00;95092.03;5134607;27;20171;-61
2022/12/06 10:35:48;;;;;;;1999.90;999.90;;;;;;;4.54;100.00;95077.44;5127633;27;20187;-61
2022/12/06 10:38:22;;;;;;;1999.90;999.90;;;;;;;4.58;100.00;95083.66;5138773;27;20165;-62
2022/12/06 10:41:03;;;;;;;1999.90;999.90;;;;;;;4.58;100.00;95089.84;5138365;27;20404;-65
2022/12/06 10:43:39;;;;;;;1999.90;999.90;;;;;;;4.55;100.00;95087.13;5138546;27;20213;-63
2022/12/06 10:49:46;;;;;;;1999.90;999.90;;;;;;;4.51;100.00;95089.03;5138776;27;20178;-60
2022/12/06 10:52:29;;;;;;;1999.90;999.90;;;;;;;4.66;100.00;95106.94;5124689;27;20187;-61
2022/12/06 10:55:08;;;;;;;1999.90;999.90;;;;;;;4.70;100.00;95092.28;5138649;27;20543;-60
2022/12/06 10:57:43;;;;;;;1999.90;999.90;;;;;;;4.74;100.00;95092.31;5138457;27;20198;-60
2022/12/06 11:00:25;;;;;;;1999.90;999.90;;;;;;;4.80;100.00;95107.03;5137502;27;20220;-72
2022/12/06 11:03:08;;;;;;;1999.90;999.90;;;;;;;4.73;100.00;95090.78;5138128;27;20201;-62
2022/12/06 11:05:43;;;;;;;1999.90;999.90;;;;;;;4.82;100.00;95097.41;5137672;27;20660;-64
2022/12/06 11:08:18;;;;;;;1999.90;999.90;;;;;;;4.76;100.00;95092.72;5138133;27;20175;-64
2022/12/06 11:10:45;;;;;;;1999.90;999.90;;;;;;;4.59;100.00;95093.34;5138049;27;20187;-63
2022/12/06 11:13:23;;;;;;;1999.90;999.90;;;;;;;4.67;100.00;95097.66;5137539;27;20203;-63
2022/12/06 11:16:23;;;;;;;1999.90;999.90;;;;;;;4.70;100.00;95097.69;5137433;27;20205;-63
2022/12/06 11:18:50;;;;;;;1999.90;999.90;;;;;;;4.60;100.00;95092.97;5113595;27;20199;-66
2022/12/06 11:21:42;;;;;;;1999.90;999.90;;;;;;;4.57;100.00;95082.09;5137648;27;20201;-60
2022/12/06 11:24:39;;;;;;;1999.90;999.90;;;;;;;4.57;100.00;95082.91;5137228;27;20179;-60
2022/12/06 11:27:14;;;;;;;1999.90;999.90;;;;;;;4.56;100.00;95075.94;5137698;27;20174;-60
2022/12/06 11:29:41;;;;;;;1999.90;999.90;;;;;;;4.51;100.00;95083.63;5137088;27;20195;-60
2022/12/06 11:32:08;;;;;;;1999.90;999.90;;;;;;;4.61;100.00;95099.13;5136849;27;20208;-61